Time,TemperatureF,DewpointF,PressureIn,WindDirection,WindDirectionDegrees,WindSpeedMPH,WindSpeedGustMPH,Humidity,HourlyPrecipIn,Conditions,Clouds,dailyrainin,SoftwareType,DateUTC
2013-07-05 00:02:00,62.8,15.9,24.89,SW,236,12.3,13.6,16,-99.99,,---,-99.99,VWS V14.01,2013-07-05 07:02:00,
2013-07-05 00:07:00,63.0,16.1,24.89,SW,233,13.2,14.1,16,-99.99,,---,-99.99,VWS V14.01,2013-07-05 07:07:00,
2013-07-05 00:12:00,63.1,16.2,24.89,SW,236,11.0,15.4,16,-99.99,,---,-99.99,VWS V14.01,2013-07-05 07:12:00,
2013-07-05 00:17:00,63.1,16.2,24.89,WSW,237,12.8,13.2,16,-99.99,,---,-99.99,VWS V14.01,2013-07-05 07:17:00,
2013-07-05 00:22:00,63.1,16.2,24.89,WSW,254,15.0,15.0,16,-99.99,,---,-99.99,VWS V14.01,2013-07-05 07:22:00,
2013-07-05 00:27:00,63.3,16.4,24.89,WSW,251,13.6,15.0,16,-99.99,,---,-99.99,VWS V14.01,2013-07-05 07:27:00,
2013-07-05 00:32:00,63.3,16.4,24.89,SW,231,15.4,15.4,16,-99.99,,---,-99.99,VWS V14.01,2013-07-05 07:32:00,
2013-07-05 00:37:00,63.5,16.5,24.89,SW,235,14.1,14.1,16,-99.99,,---,-99.99,VWS V14.01,2013-07-05 07:37:00,
2013-07-05 00:42:00,63.5,16.5,24.89,WSW,238,13.6,15.0,16,-99.99,,---,-99.99,VWS V14.01,2013-07-05 07:42:00,
2013-07-05 00:47:00,63.7,16.7,24.89,WSW,244,16.3,16.3,16,-99.99,,---,-99.99,VWS V14.01,2013-07-05 07:47:00,
2013-07-05 00:52:00,63.9,16.8,24.89,WSW,248,12.8,12.8,16,-99.99,,---,-99.99,VWS V14.01,2013-07-05 07:52:00,
2013-07-05 00:57:00,63.9,16.8,24.89,WSW,238,16.3,16.3,16,-99.99,,---,-99.99,VWS V14.01,2013-07-05 07:57:00,
2013-07-05 01:02:00,63.9,16.8,24.89,WSW,243,15.4,15.4,16,-99.99,,---,-99.99,VWS V14.01,2013-07-05 08:02:00,
2013-07-05 01:07:00,63.7,16.7,24.89,WSW,249,13.6,15.9,16,-99.99,,---,-99.99,VWS V14.01,2013-07-05 08:07:00,
2013-07-05 01:12:00,63.5,16.5,24.89,WSW,244,15.4,15.4,16,-99.99,,---,-99.99,VWS V14.01,2013-07-05 08:12:00,
2013-07-05 01:17:00,63.1,16.2,24.89,WSW,241,12.8,15.0,16,-99.99,,---,-99.99,VWS V14.01,2013-07-05 08:17:00,
2013-07-05 01:22:00,63.1,16.2,24.89,WSW,245,13.2,13.2,16,-99.99,,---,-99.99,VWS V14.01,2013-07-05 08:22:00,
2013-07-05 01:27:00,63.0,16.1,24.89,WSW,244,14.5,14.5,16,-99.99,,---,-99.99,VWS V14.01,2013-07-05 08:27:00,
2013-07-05 01:32:00,63.0,16.1,24.89,SW,234,13.2,13.2,16,-99.99,,---,-99.99,VWS V14.01,2013-07-05 08:32:00,
2013-07-05 01:37:00,63.0,16.1,24.89,West,259,12.8,13.2,16,-99.99,,---,-99.99,VWS V14.01,2013-07-05 08:37:00,
2013-07-05 01:42:00,62.8,15.9,24.89,WSW,244,12.8,12.8,16,-99.99,,---,-99.99,VWS V14.01,2013-07-05 08:42:00,
2013-07-05 01:47:00,63.0,16.1,24.89,WSW,242,12.8,13.2,16,-99.99,,---,-99.99,VWS V14.01,2013-07-05 08:47:00,
2013-07-05 01:52:00,63.1,16.2,24.89,SW,230,12.8,12.8,16,-99.99,,---,-99.99,VWS V14.01,2013-07-05 08:52:00,
2013-07-05 01:57:00,63.3,16.4,24.89,WSW,239,13.6,13.6,16,-99.99,,---,-99.99,VWS V14.01,2013-07-05 08:57:00,
2013-07-05 02:02:00,63.3,16.4,24.89,SW,231,10.5,12.8,16,-99.99,,---,-99.99,VWS V14.01,2013-07-05 09:02:00,
2013-07-05 02:07:00,63.1,16.2,24.89,SW,236,12.3,13.2,16,-99.99,,---,-99.99,VWS V14.01,2013-07-05 09:07:00,
2013-07-05 02:12:00,63.1,16.2,24.89,SW,236,12.8,13.2,16,-99.99,,---,-99.99,VWS V14.01,2013-07-05 09:12:00,
2013-07-05 02:17:00,63.1,16.2,24.89,SW,235,11.9,12.8,16,-99.99,,---,-99.99,VWS V14.01,2013-07-05 09:17:00,
2013-07-05 02:22:00,63.1,16.2,24.89,SW,222,9.6,11.9,16,-99.99,,---,-99.99,VWS V14.01,2013-07-05 09:22:00,
2013-07-05 02:27:00,63.3,16.4,24.89,SW,232,12.3,12.8,16,-99.99,,---,-99.99,VWS V14.01,2013-07-05 09:27:00,
2013-07-05 02:32:00,63.3,16.4,24.89,SW,236,13.2,15.0,16,-99.99,,---,-99.99,VWS V14.01,2013-07-05 09:32:00,
2013-07-05 02:38:00,63.5,16.5,24.89,WSW,240,14.5,15.0,16,-99.99,,---,-99.99,VWS V14.01,2013-07-05 09:38:00,
2013-07-05 02:43:00,63.5,16.5,24.89,SW,230,13.2,15.0,16,-99.99,,---,-99.99,VWS V14.01,2013-07-05 09:43:00,
2013-07-05 02:48:00,63.7,16.7,24.89,WSW,243,13.2,15.0,16,-99.99,,---,-99.99,VWS V14.01,2013-07-05 09:48:00,
2013-07-05 02:53:00,63.5,16.5,24.89,SW,218,13.2,13.6,16,-99.99,,---,-99.99,VWS V14.01,2013-07-05 09:53:00,
2013-07-05 02:58:00,63.7,16.7,24.89,SW,231,12.3,15.0,16,-99.99,,---,-99.99,VWS V14.01,2013-07-05 09:58:00,
2013-07-05 03:03:00,63.5,16.5,24.89,WSW,240,15.4,15.9,16,-99.99,,---,-99.99,VWS V14.01,2013-07-05 10:03:00,
2013-07-05 03:08:00,63.5,16.5,24.89,WSW,248,13.2,15.4,16,-99.99,,---,-99.99,VWS V14.01,2013-07-05 10:08:00,
2013-07-05 03:13:00,63.5,16.5,24.89,SW,235,15.0,15.0,16,-99.99,,---,-99.99,VWS V14.01,2013-07-05 10:13:00,
2013-07-05 03:18:00,63.5,16.5,24.89,WSW,239,14.1,14.1,16,-99.99,,---,-99.99,VWS V14.01,2013-07-05 10:18:00,
2013-07-05 03:23:00,63.3,16.4,24.89,WSW,244,12.8,13.2,16,-99.99,,---,-99.99,VWS V14.01,2013-07-05 10:23:00,
2013-07-05 03:28:00,63.3,16.4,24.89,WSW,245,12.8,15.0,16,-99.99,,---,-99.99,VWS V14.01,2013-07-05 10:28:00,
2013-07-05 03:33:00,63.3,16.4,24.89,SW,235,12.8,12.8,16,-99.99,,---,-99.99,VWS V14.01,2013-07-05 10:33:00,
2013-07-05 03:38:00,63.5,16.5,24.89,WSW,254,11.9,13.2,16,-99.99,,---,-99.99,VWS V14.01,2013-07-05 10:38:00,
2013-07-05 03:43:00,63.5,16.5,24.89,WSW,239,16.3,16.3,16,-99.99,,---,-99.99,VWS V14.01,2013-07-05 10:43:00,
2013-07-05 03:49:00,63.3,16.4,24.89,SW,236,13.2,15.4,16,-99.99,,---,-99.99,VWS V14.01,2013-07-05 10:49:00,
2013-07-05 03:54:00,63.3,16.4,24.89,SW,236,15.0,15.0,16,-99.99,,---,-99.99,VWS V14.01,2013-07-05 10:54:00,
2013-07-05 03:59:00,63.3,16.4,24.89,WSW,242,11.9,13.2,16,-99.99,,---,-99.99,VWS V14.01,2013-07-05 10:59:00,
2013-07-05 04:04:00,63.3,16.4,24.89,SW,236,13.6,14.5,16,-99.99,,---,-99.99,VWS V14.01,2013-07-05 11:04:00,
2013-07-05 04:09:00,63.3,16.4,24.89,WSW,243,16.3,16.3,16,-99.99,,---,-99.99,VWS V14.01,2013-07-05 11:09:00,
2013-07-05 04:14:00,63.3,16.4,24.89,WSW,243,11.9,14.5,16,-99.99,,---,-99.99,VWS V14.01,2013-07-05 11:14:00,
2013-07-05 04:19:00,63.1,16.2,24.89,WSW,244,11.0,12.8,16,-99.99,,---,-99.99,VWS V14.01,2013-07-05 11:19:00,
2013-07-05 04:24:00,63.1,16.2,24.89,WSW,246,12.8,13.6,16,-99.99,,---,-99.99,VWS V14.01,2013-07-05 11:24:00,
2013-07-05 04:29:00,63.1,16.2,24.89,SW,235,11.0,12.3,16,-99.99,,---,-99.99,VWS V14.01,2013-07-05 11:29:00,
2013-07-05 04:34:00,63.0,16.1,24.89,SW,234,15.4,15.4,16,-99.99,,---,-99.99,VWS V14.01,2013-07-05 11:34:00,
2013-07-05 04:39:00,63.0,16.1,24.89,WSW,246,10.5,13.2,16,-99.99,,---,-99.99,VWS V14.01,2013-07-05 11:39:00,
2013-07-05 04:44:00,63.1,16.2,24.89,WSW,240,12.8,12.8,16,-99.99,,---,-99.99,VWS V14.01,2013-07-05 11:44:00,
2013-07-05 04:49:00,63.1,16.2,24.89,SW,230,12.8,13.2,16,-99.99,,---,-99.99,VWS V14.01,2013-07-05 11:49:00,
2013-07-05 04:54:00,63.0,16.1,24.89,SW,232,11.0,11.0,16,-99.99,,---,-99.99,VWS V14.01,2013-07-05 11:54:00,
2013-07-05 05:00:00,62.8,15.9,24.89,WSW,247,12.8,12.8,16,-99.99,,---,-99.99,VWS V14.01,2013-07-05 12:00:00,
2013-07-05 05:05:00,62.8,15.9,24.89,WSW,246,11.0,13.2,16,-99.99,,---,-99.99,VWS V14.01,2013-07-05 12:05:00,
2013-07-05 05:10:00,63.0,16.1,24.89,WSW,245,12.8,12.8,16,-99.99,,---,-99.99,VWS V14.01,2013-07-05 12:10:00,
2013-07-05 05:15:00,62.8,15.9,24.89,WSW,245,13.2,13.2,16,-99.99,,---,-99.99,VWS V14.01,2013-07-05 12:15:00,
2013-07-05 05:20:00,62.8,15.9,24.89,SW,234,13.2,13.2,16,-99.99,,---,-99.99,VWS V14.01,2013-07-05 12:20:00,
2013-07-05 05:25:00,62.8,15.9,24.89,WSW,241,12.8,13.2,16,-99.99,,---,-99.99,VWS V14.01,2013-07-05 12:25:00,
2013-07-05 05:30:00,62.8,15.9,24.89,WSW,241,10.5,13.6,16,-99.99,,---,-99.99,VWS V14.01,2013-07-05 12:30:00,
2013-07-05 05:35:00,62.8,15.9,24.89,SW,236,10.5,13.2,16,-99.99,,---,-99.99,VWS V14.01,2013-07-05 12:35:00,
2013-07-05 05:40:00,62.8,15.9,24.89,WSW,239,13.2,13.2,16,-99.99,,---,-99.99,VWS V14.01,2013-07-05 12:40:00,
2013-07-05 05:46:00,62.6,15.8,24.89,WSW,247,13.2,14.1,16,-99.99,,---,-99.99,VWS V14.01,2013-07-05 12:46:00,
2013-07-05 05:51:00,62.6,15.8,24.89,WSW,240,11.9,12.8,16,-99.99,,---,-99.99,VWS V14.01,2013-07-05 12:51:00,
2013-07-05 05:56:00,62.6,15.8,24.89,WSW,243,12.8,12.8,16,-99.99,,---,-99.99,VWS V14.01,2013-07-05 12:56:00,
2013-07-05 06:01:00,62.6,15.8,24.89,WSW,243,13.2,14.1,16,-99.99,,---,-99.99,VWS V14.01,2013-07-05 13:01:00,
2013-07-05 06:06:00,62.8,15.9,24.89,WSW,239,12.8,12.8,16,-99.99,,---,-99.99,VWS V14.01,2013-07-05 13:06:00,
2013-07-05 06:11:00,62.8,15.9,24.89,WSW,241,13.2,14.1,16,-99.99,,---,-99.99,VWS V14.01,2013-07-05 13:11:00,
2013-07-05 06:16:00,63.1,16.2,24.89,WSW,239,12.8,12.8,16,-99.99,,---,-99.99,VWS V14.01,2013-07-05 13:16:00,
2013-07-05 06:21:00,63.1,16.2,24.89,WSW,240,10.5,11.0,16,-99.99,,---,-99.99,VWS V14.01,2013-07-05 13:21:00,
2013-07-05 06:26:00,63.1,16.2,24.89,WSW,250,11.0,13.2,16,-99.99,,---,-99.99,VWS V14.01,2013-07-05 13:26:00,
2013-07-05 06:31:00,63.5,16.5,24.89,WSW,254,12.3,13.2,16,-99.99,,---,-99.99,VWS V14.01,2013-07-05 13:31:00,
2013-07-05 06:36:00,64.0,17.0,24.89,WSW,243,13.2,13.2,16,-99.99,,---,-99.99,VWS V14.01,2013-07-05 13:36:00,
2013-07-05 06:41:00,64.2,17.1,24.89,WSW,243,12.3,13.2,16,-99.99,,---,-99.99,VWS V14.01,2013-07-05 13:41:00,
2013-07-05 06:46:00,64.4,15.8,24.89,WSW,246,11.0,11.9,15,-99.99,,---,-99.99,VWS V14.01,2013-07-05 13:46:00,
2013-07-05 06:51:00,64.6,15.9,24.89,WSW,245,13.2,13.2,15,-99.99,,---,-99.99,VWS V14.01,2013-07-05 13:51:00,
2013-07-05 06:56:00,64.6,15.9,24.89,WSW,251,12.8,12.8,15,-99.99,,---,-99.99,VWS V14.01,2013-07-05 13:56:00,
2013-07-05 07:01:00,64.8,16.1,24.89,WSW,253,12.8,13.2,15,-99.99,,---,-99.99,VWS V14.01,2013-07-05 14:01:00,
2013-07-05 07:06:00,65.1,16.4,24.89,WSW,242,12.3,12.8,15,-99.99,,---,-99.99,VWS V14.01,2013-07-05 14:06:00,
2013-07-05 07:11:00,65.1,16.4,24.89,WSW,251,12.3,12.3,15,-99.99,,---,-99.99,VWS V14.01,2013-07-05 14:11:00,
2013-07-05 07:16:00,65.3,16.5,24.89,WSW,242,10.5,12.8,15,-99.99,,---,-99.99,VWS V14.01,2013-07-05 14:16:00,
2013-07-05 07:21:00,65.1,16.4,24.89,WSW,253,10.1,12.8,15,-99.99,,---,-99.99,VWS V14.01,2013-07-05 14:21:00,
2013-07-05 07:26:00,65.5,16.6,24.89,WSW,249,10.5,11.0,15,-99.99,,---,-99.99,VWS V14.01,2013-07-05 14:26:00,
2013-07-05 07:31:00,65.8,16.9,24.89,WSW,254,10.1,14.1,15,-99.99,,---,-99.99,VWS V14.01,2013-07-05 14:31:00,
2013-07-05 07:36:00,66.0,17.1,24.89,WSW,255,13.2,13.2,15,-99.99,,---,-99.99,VWS V14.01,2013-07-05 14:36:00,
2013-07-05 07:41:00,66.4,17.4,24.89,WSW,256,13.6,13.6,15,-99.99,,---,-99.99,VWS V14.01,2013-07-05 14:41:00,
2013-07-05 07:46:00,66.4,17.4,24.89,West,259,12.3,12.3,15,-99.99,,---,-99.99,VWS V14.01,2013-07-05 14:46:00,
2013-07-05 07:51:00,66.6,17.5,24.89,SW,228,10.1,15.0,15,-99.99,,---,-99.99,VWS V14.01,2013-07-05 14:51:00,
2013-07-05 07:56:00,66.6,17.5,24.89,WSW,240,14.5,14.5,15,-99.99,,---,-99.99,VWS V14.01,2013-07-05 14:56:00,
2013-07-05 08:01:00,66.6,17.5,24.89,WSW,250,14.5,14.5,15,-99.99,,---,-99.99,VWS V14.01,2013-07-05 15:01:00,
2013-07-05 08:06:00,66.6,17.5,24.89,WSW,251,8.3,13.2,15,-99.99,,---,-99.99,VWS V14.01,2013-07-05 15:06:00,
2013-07-05 08:11:00,66.7,17.6,24.89,WSW,247,11.0,12.3,15,-99.99,,---,-99.99,VWS V14.01,2013-07-05 15:11:00,
2013-07-05 08:16:00,66.7,17.6,24.89,WSW,249,10.1,10.1,15,-99.99,,---,-99.99,VWS V14.01,2013-07-05 15:16:00,
2013-07-05 08:21:00,66.6,17.5,24.89,WSW,246,11.0,12.3,15,-99.99,,---,-99.99,VWS V14.01,2013-07-05 15:21:00,
2013-07-05 08:26:00,66.7,17.6,24.89,WSW,257,11.0,11.0,15,-99.99,,---,-99.99,VWS V14.01,2013-07-05 15:26:00,
2013-07-05 08:31:00,66.6,17.5,24.89,WSW,253,11.9,11.9,15,-99.99,,---,-99.99,VWS V14.01,2013-07-05 15:31:00,
2013-07-05 08:37:00,66.7,17.6,24.89,WSW,251,12.3,12.3,15,-99.99,,---,-99.99,VWS V14.01,2013-07-05 15:37:00,
2013-07-05 08:42:00,67.1,17.9,24.89,WSW,256,11.0,11.0,15,-99.99,,---,-99.99,VWS V14.01,2013-07-05 15:42:00,
2013-07-05 08:47:00,67.5,18.2,24.89,WSW,250,10.1,11.0,15,-99.99,,---,-99.99,VWS V14.01,2013-07-05 15:47:00,
2013-07-05 08:49:00,67.5,18.2,24.89,West,272,12.8,13.2,15,-99.99,,---,-99.99,VWS V14.01,2013-07-05 15:49:00,
2013-07-05 08:54:00,68.0,18.7,24.89,West,264,8.3,11.0,15,-99.99,,---,-99.99,VWS V14.01,2013-07-05 15:54:00,
2013-07-05 08:59:00,68.5,19.1,24.89,West,262,5.8,11.9,15,-99.99,,---,-99.99,VWS V14.01,2013-07-05 15:59:00,
2013-07-05 09:04:00,69.1,19.5,24.89,West,260,0.0,0.0,15,-99.99,,---,-99.99,VWS V14.01,2013-07-05 16:04:00,
2013-07-05 09:10:00,69.4,19.8,24.89,WSW,253,0.0,0.0,15,-99.99,,---,-99.99,VWS V14.01,2013-07-05 16:10:00,
2013-07-05 09:15:00,70.2,18.8,24.89,West,266,0.0,0.0,14,-99.99,,---,-99.99,VWS V14.01,2013-07-05 16:15:00,
2013-07-05 09:20:00,70.7,19.2,24.89,West,272,0.0,0.0,14,-99.99,,---,-99.99,VWS V14.01,2013-07-05 16:20:00,
2013-07-05 09:25:00,71.1,19.5,24.89,WNW,284,0.0,0.0,14,-99.99,,---,-99.99,VWS V14.01,2013-07-05 16:25:00,
2013-07-05 09:30:00,71.4,19.8,24.89,West,263,0.0,0.0,14,-99.99,,---,-99.99,VWS V14.01,2013-07-05 16:30:00,
2013-07-05 09:35:00,72.0,20.2,24.89,West,266,0.0,0.0,14,-99.99,,---,-99.99,VWS V14.01,2013-07-05 16:35:00,
2013-07-05 09:40:00,72.1,20.4,24.89,WSW,255,0.0,0.0,14,-99.99,,---,-99.99,VWS V14.01,2013-07-05 16:40:00,
2013-07-05 09:45:00,72.1,20.4,24.89,WSW,257,0.0,0.0,14,-99.99,,---,-99.99,VWS V14.01,2013-07-05 16:45:00,
2013-07-05 09:50:00,72.5,20.6,24.89,SW,227,0.0,0.0,14,-99.99,,---,-99.99,VWS V14.01,2013-07-05 16:50:00,
2013-07-05 09:55:00,72.7,20.8,24.89,WNW,289,0.0,0.0,14,-99.99,,---,-99.99,VWS V14.01,2013-07-05 16:55:00,
2013-07-05 10:00:00,73.4,19.6,24.89,WSW,255,0.0,0.0,13,-99.99,,---,-99.99,VWS V14.01,2013-07-05 17:00:00,
2013-07-05 10:05:00,73.8,19.9,24.89,WSW,253,0.0,0.0,13,-99.99,,---,-99.99,VWS V14.01,2013-07-05 17:05:00,
2013-07-05 10:10:00,73.9,20.0,24.89,West,259,0.0,0.0,13,-99.99,,---,-99.99,VWS V14.01,2013-07-05 17:10:00,
2013-07-05 10:15:00,74.1,25.1,24.89,WSW,239,0.0,0.0,16,-99.99,,---,-99.99,VWS V14.01,2013-07-05 17:15:00,
2013-07-05 10:20:00,74.8,25.7,24.89,WSW,242,0.0,0.0,16,-99.99,,---,-99.99,VWS V14.01,2013-07-05 17:20:00,
2013-07-05 10:25:00,74.8,25.7,24.89,WSW,248,0.0,0.0,16,-99.99,,---,-99.99,VWS V14.01,2013-07-05 17:25:00,
2013-07-05 10:30:00,74.7,25.5,24.89,SW,218,0.0,0.0,16,-99.99,,---,-99.99,VWS V14.01,2013-07-05 17:30:00,
2013-07-05 10:35:00,75.2,24.4,24.89,SW,225,0.0,0.0,15,-99.99,,---,-99.99,VWS V14.01,2013-07-05 17:35:00,
2013-07-05 10:40:00,76.6,25.6,24.89,South,182,0.0,0.0,15,-99.99,,---,-99.99,VWS V14.01,2013-07-05 17:40:00,
2013-07-05 10:45:00,76.8,25.7,24.89,WSW,243,0.0,0.0,15,-99.99,,---,-99.99,VWS V14.01,2013-07-05 17:45:00,
2013-07-05 10:50:00,77.2,26.0,24.89,SW,226,0.0,0.0,15,-99.99,,---,-99.99,VWS V14.01,2013-07-05 17:50:00,
2013-07-05 10:55:00,76.8,25.7,24.89,WSW,257,0.0,0.0,15,-99.99,,---,-99.99,VWS V14.01,2013-07-05 17:55:00,
2013-07-05 11:00:00,76.5,25.4,24.89,SW,232,0.0,0.0,15,-99.99,,---,-99.99,VWS V14.01,2013-07-05 18:00:00,
2013-07-05 11:05:00,75.7,24.9,24.89,SW,218,0.0,0.0,15,-99.99,,---,-99.99,VWS V14.01,2013-07-05 18:05:00,
2013-07-05 11:10:00,75.0,25.8,24.89,WNW,290,0.0,0.0,16,-99.99,,---,-99.99,VWS V14.01,2013-07-05 18:10:00,
2013-07-05 11:15:00,75.7,24.9,24.89,WSW,237,0.0,0.0,15,-99.99,,---,-99.99,VWS V14.01,2013-07-05 18:15:00,
2013-07-05 11:20:00,77.4,26.1,24.89,SSE,160,0.0,0.0,15,-99.99,,---,-99.99,VWS V14.01,2013-07-05 18:20:00,
2013-07-05 11:25:00,77.9,26.6,24.89,WSW,253,0.0,0.0,15,-99.99,,---,-99.99,VWS V14.01,2013-07-05 18:25:00,
2013-07-05 11:30:00,78.4,27.0,24.89,West,264,0.0,0.0,15,-99.99,,---,-99.99,VWS V14.01,2013-07-05 18:30:00,
2013-07-05 11:35:00,79.5,27.9,24.89,South,184,0.0,0.0,15,-99.99,,---,-99.99,VWS V14.01,2013-07-05 18:35:00,
2013-07-05 11:40:00,80.1,28.3,24.89,West,279,0.0,0.0,15,-99.99,,---,-99.99,VWS V14.01,2013-07-05 18:40:00,
2013-07-05 11:41:00,80.1,28.3,24.89,South,186,0.0,0.0,15,-99.99,,---,-99.99,VWS V14.01,2013-07-05 18:41:00,
2013-07-05 11:46:00,79.9,28.1,24.89,NW,321,0.0,0.0,15,-99.99,,---,-99.99,VWS V14.01,2013-07-05 18:46:00,
2013-07-05 11:51:00,78.6,27.1,24.89,SW,221,0.0,0.0,15,-99.99,,---,-99.99,VWS V14.01,2013-07-05 18:51:00,
2013-07-05 11:56:00,78.6,27.1,24.89,WSW,239,0.0,0.0,15,-99.99,,---,-99.99,VWS V14.01,2013-07-05 18:56:00,
2013-07-05 12:01:00,78.1,26.7,24.89,SW,219,0.0,0.0,15,-99.99,,---,-99.99,VWS V14.01,2013-07-05 19:01:00,
2013-07-05 12:06:00,76.6,25.6,24.89,SSW,192,0.0,0.0,15,-99.99,,---,-99.99,VWS V14.01,2013-07-05 19:06:00,
2013-07-05 12:11:00,76.5,25.4,24.89,WSW,238,0.0,0.0,15,-99.99,,---,-99.99,VWS V14.01,2013-07-05 19:11:00,
2013-07-05 12:16:00,75.7,24.9,24.89,SW,219,0.0,0.0,15,-99.99,,---,-99.99,VWS V14.01,2013-07-05 19:16:00,
2013-07-05 12:21:00,75.6,24.7,24.89,SW,229,0.0,0.0,15,-99.99,,---,-99.99,VWS V14.01,2013-07-05 19:21:00,
2013-07-05 12:22:00,75.6,24.7,24.89,WSW,244,0.0,0.0,15,-99.99,,---,-99.99,VWS V14.01,2013-07-05 19:22:00,
2013-07-05 12:27:00,75.2,24.4,24.89,SSW,206,0.0,0.0,15,-99.99,,---,-99.99,VWS V14.01,2013-07-05 19:27:00,
2013-07-05 12:32:00,75.6,24.7,24.89,WSW,250,0.0,0.0,15,-99.99,,---,-99.99,VWS V14.01,2013-07-05 19:32:00,
2013-07-05 12:37:00,76.5,25.4,24.89,WSW,253,0.0,0.0,15,-99.99,,---,-99.99,VWS V14.01,2013-07-05 19:37:00,
2013-07-05 12:42:00,77.5,26.3,24.89,WSW,240,0.0,0.0,15,-99.99,,---,-99.99,VWS V14.01,2013-07-05 19:42:00,
2013-07-05 12:47:00,78.3,26.9,24.89,WSW,243,0.0,0.0,15,-99.99,,---,-99.99,VWS V14.01,2013-07-05 19:47:00,
2013-07-05 12:52:00,78.3,26.9,24.89,WSW,245,0.0,0.0,15,-99.99,,---,-99.99,VWS V14.01,2013-07-05 19:52:00,
2013-07-05 12:57:00,77.7,26.4,24.89,West,265,0.0,0.0,15,-99.99,,---,-99.99,VWS V14.01,2013-07-05 19:57:00,
2013-07-05 13:02:00,77.5,26.3,24.89,WSW,242,0.0,0.0,15,-99.99,,---,-99.99,VWS V14.01,2013-07-05 20:02:00,
2013-07-05 13:07:00,78.6,27.1,24.89,SW,224,0.0,0.0,15,-99.99,,---,-99.99,VWS V14.01,2013-07-05 20:07:00,
2013-07-05 13:12:00,79.2,27.6,24.89,WSW,237,0.0,0.0,15,-99.99,,---,-99.99,VWS V14.01,2013-07-05 20:12:00,
2013-07-05 13:17:00,78.6,27.1,24.89,SW,223,0.0,0.0,15,-99.99,,---,-99.99,VWS V14.01,2013-07-05 20:17:00,
2013-07-05 13:22:00,77.2,26.0,24.89,South,180,0.0,0.0,15,-99.99,,---,-99.99,VWS V14.01,2013-07-05 20:22:00,
2013-07-05 13:27:00,76.3,25.3,24.89,WSW,239,0.0,0.0,15,-99.99,,---,-99.99,VWS V14.01,2013-07-05 20:27:00,
2013-07-05 13:32:00,76.1,25.1,24.89,SSW,203,0.0,0.0,15,-99.99,,---,-99.99,VWS V14.01,2013-07-05 20:32:00,
2013-07-05 13:37:00,75.4,24.6,24.89,SW,231,0.0,0.0,15,-99.99,,---,-99.99,VWS V14.01,2013-07-05 20:37:00,
2013-07-05 13:42:00,75.2,24.4,24.89,WSW,237,0.0,0.0,15,-99.99,,---,-99.99,VWS V14.01,2013-07-05 20:42:00,
2013-07-05 13:47:00,76.1,25.1,24.89,SSW,195,0.0,0.0,15,-99.99,,---,-99.99,VWS V14.01,2013-07-05 20:47:00,
2013-07-05 13:52:00,77.0,25.9,24.89,SSW,202,0.0,0.0,15,-99.99,,---,-99.99,VWS V14.01,2013-07-05 20:52:00,
2013-07-05 13:57:00,77.5,26.3,24.89,South,183,0.0,0.0,15,-99.99,,---,-99.99,VWS V14.01,2013-07-05 20:57:00,
2013-07-05 14:02:00,77.9,26.6,24.89,WSW,246,0.0,0.0,15,-99.99,,---,-99.99,VWS V14.01,2013-07-05 21:02:00,
2013-07-05 14:07:00,76.1,25.1,24.89,South,171,0.0,0.0,15,-99.99,,---,-99.99,VWS V14.01,2013-07-05 21:07:00,
2013-07-05 14:09:00,76.1,25.1,24.89,SSE,150,0.0,0.0,15,-99.99,,---,-99.99,VWS V14.01,2013-07-05 21:09:00,
2013-07-05 14:14:00,77.2,26.0,24.89,SSW,209,0.0,0.0,15,-99.99,,---,-99.99,VWS V14.01,2013-07-05 21:14:00,
2013-07-05 14:19:00,77.2,26.0,24.89,SSW,199,0.0,0.0,15,-99.99,,---,-99.99,VWS V14.01,2013-07-05 21:19:00,
2013-07-05 14:24:00,77.2,26.0,24.89,SW,222,0.0,0.0,15,-99.99,,---,-99.99,VWS V14.01,2013-07-05 21:24:00,
2013-07-05 14:29:00,77.5,26.3,24.89,SSW,206,0.0,0.0,15,-99.99,,---,-99.99,VWS V14.01,2013-07-05 21:29:00,
2013-07-05 14:34:00,78.1,26.7,24.89,South,179,0.0,0.0,15,-99.99,,---,-99.99,VWS V14.01,2013-07-05 21:34:00,
2013-07-05 14:39:00,77.5,26.3,24.89,SSE,150,0.0,0.0,15,-99.99,,---,-99.99,VWS V14.01,2013-07-05 21:39:00,
2013-07-05 14:44:00,78.3,26.9,24.89,South,171,0.0,0.0,15,-99.99,,---,-99.99,VWS V14.01,2013-07-05 21:44:00,
2013-07-05 14:49:00,78.8,27.3,24.89,SSW,204,0.0,0.0,15,-99.99,,---,-99.99,VWS V14.01,2013-07-05 21:49:00,
2013-07-05 14:54:00,78.6,27.1,24.89,SSE,160,0.0,0.0,15,-99.99,,---,-99.99,VWS V14.01,2013-07-05 21:54:00,
2013-07-05 14:59:00,78.6,27.1,24.89,SSE,150,0.0,0.0,15,-99.99,,---,-99.99,VWS V14.01,2013-07-05 21:59:00,
2013-07-05 15:04:00,79.0,27.4,24.89,South,183,0.0,0.0,15,-99.99,,---,-99.99,VWS V14.01,2013-07-05 22:04:00,
2013-07-05 15:09:00,78.1,26.7,24.89,South,181,0.0,0.0,15,-99.99,,---,-99.99,VWS V14.01,2013-07-05 22:09:00,
2013-07-05 15:14:00,78.4,27.0,24.89,WSW,252,0.0,0.0,15,-99.99,,---,-99.99,VWS V14.01,2013-07-05 22:14:00,
2013-07-05 15:19:00,79.9,28.1,24.89,SSE,149,0.0,0.0,15,-99.99,,---,-99.99,VWS V14.01,2013-07-05 22:19:00,
2013-07-05 15:24:00,80.2,28.4,24.89,SSE,164,0.0,0.0,15,-99.99,,---,-99.99,VWS V14.01,2013-07-05 22:24:00,
2013-07-05 15:29:00,80.2,28.4,24.89,SSW,195,0.0,0.0,15,-99.99,,---,-99.99,VWS V14.01,2013-07-05 22:29:00,
2013-07-05 15:34:00,80.2,28.4,24.89,South,174,0.0,0.0,15,-99.99,,---,-99.99,VWS V14.01,2013-07-05 22:34:00,
2013-07-05 15:39:00,79.9,28.1,24.89,South,183,0.0,0.0,15,-99.99,,---,-99.99,VWS V14.01,2013-07-05 22:39:00,
2013-07-05 15:44:00,78.8,27.3,24.89,SSE,155,0.0,0.0,15,-99.99,,---,-99.99,VWS V14.01,2013-07-05 22:44:00,
2013-07-05 15:49:00,79.3,27.7,24.89,SW,232,0.0,0.0,15,-99.99,,---,-99.99,VWS V14.01,2013-07-05 22:49:00,
2013-07-05 15:54:00,79.7,28.0,24.89,ESE,108,0.0,0.0,15,-99.99,,---,-99.99,VWS V14.01,2013-07-05 22:54:00,
2013-07-05 15:59:00,79.5,27.9,24.89,SSE,155,0.0,0.0,15,-99.99,,---,-99.99,VWS V14.01,2013-07-05 22:59:00,
2013-07-05 16:04:00,80.2,28.4,24.89,South,171,0.0,0.0,15,-99.99,,---,-99.99,VWS V14.01,2013-07-05 23:04:00,
2013-07-05 16:09:00,79.2,27.6,24.89,SSE,157,0.0,0.0,15,-99.99,,---,-99.99,VWS V14.01,2013-07-05 23:09:00,
2013-07-05 16:14:00,77.9,26.6,24.89,South,190,0.0,0.0,15,-99.99,,---,-99.99,VWS V14.01,2013-07-05 23:14:00,
2013-07-05 16:19:00,76.5,25.4,24.89,South,180,0.0,0.0,15,-99.99,,---,-99.99,VWS V14.01,2013-07-05 23:19:00,
2013-07-05 16:24:00,76.1,25.1,24.89,SW,221,0.0,0.0,15,-99.99,,---,-99.99,VWS V14.01,2013-07-05 23:24:00,
2013-07-05 16:25:00,76.1,25.1,24.89,SW,220,0.0,0.0,15,-99.99,,---,-99.99,VWS V14.01,2013-07-05 23:25:00,
2013-07-05 16:30:00,75.7,24.9,24.89,SW,220,0.0,0.0,15,-99.99,,---,-99.99,VWS V14.01,2013-07-05 23:30:00,
2013-07-05 16:35:00,75.4,24.6,24.89,SSW,198,0.0,0.0,15,-99.99,,---,-99.99,VWS V14.01,2013-07-05 23:35:00,
2013-07-05 16:40:00,75.2,24.4,24.89,SW,220,0.0,0.0,15,-99.99,,---,-99.99,VWS V14.01,2013-07-05 23:40:00,
2013-07-05 16:45:00,75.7,24.9,24.89,South,185,0.0,0.0,15,-99.99,,---,-99.99,VWS V14.01,2013-07-05 23:45:00,
2013-07-05 16:50:00,75.6,24.7,24.89,SSW,201,0.0,0.0,15,-99.99,,---,-99.99,VWS V14.01,2013-07-05 23:50:00,
2013-07-05 16:55:00,74.5,25.4,24.89,South,185,0.0,0.0,16,-99.99,,---,-99.99,VWS V14.01,2013-07-05 23:55:00,
2013-07-05 17:00:00,74.5,25.4,24.89,South,173,0.0,0.0,16,-99.99,,---,-99.99,VWS V14.01,2013-07-06 00:00:00,
2013-07-05 17:05:00,73.8,19.9,24.89,SSE,147,0.0,0.0,13,-99.99,,---,-99.99,VWS V14.01,2013-07-06 00:05:00,
2013-07-05 17:10:00,73.6,19.8,24.89,SSE,155,0.0,0.0,13,-99.99,,---,-99.99,VWS V14.01,2013-07-06 00:10:00,
2013-07-05 17:15:00,73.2,21.2,24.89,South,177,0.0,0.0,14,-99.99,,---,-99.99,VWS V14.01,2013-07-06 00:15:00,
2013-07-05 17:20:00,73.0,21.1,24.89,South,187,0.0,0.0,14,-99.99,,---,-99.99,VWS V14.01,2013-07-06 00:20:00,
2013-07-05 17:25:00,72.5,20.6,24.89,South,169,0.0,0.0,14,-99.99,,---,-99.99,VWS V14.01,2013-07-06 00:25:00,
2013-07-05 17:30:00,72.5,20.6,24.89,South,182,0.0,0.0,14,-99.99,,---,-99.99,VWS V14.01,2013-07-06 00:30:00,
2013-07-05 17:35:00,72.0,20.2,24.89,SW,224,0.0,0.0,14,-99.99,,---,-99.99,VWS V14.01,2013-07-06 00:35:00,
2013-07-05 17:40:00,72.0,20.2,24.89,SW,218,0.0,0.0,14,-99.99,,---,-99.99,VWS V14.01,2013-07-06 00:40:00,
2013-07-05 17:45:00,72.1,20.4,24.89,SSW,203,0.0,0.0,14,-99.99,,---,-99.99,VWS V14.01,2013-07-06 00:45:00,
2013-07-05 17:50:00,72.3,20.5,24.89,South,189,0.0,0.0,14,-99.99,,---,-99.99,VWS V14.01,2013-07-06 00:50:00,
2013-07-05 17:55:00,71.8,20.1,24.89,South,185,0.0,0.0,14,-99.99,,---,-99.99,VWS V14.01,2013-07-06 00:55:00,
2013-07-05 18:00:00,71.6,19.9,24.89,South,188,0.0,0.0,14,-99.99,,---,-99.99,VWS V14.01,2013-07-06 01:00:00,
2013-07-05 18:05:00,71.6,19.9,24.89,SW,221,0.0,0.0,14,-99.99,,---,-99.99,VWS V14.01,2013-07-06 01:05:00,
2013-07-05 18:10:00,71.2,19.6,24.89,SW,221,0.0,0.0,14,-99.99,,---,-99.99,VWS V14.01,2013-07-06 01:10:00,
2013-07-05 18:15:00,70.3,18.9,24.89,SSW,212,0.0,0.0,14,-99.99,,---,-99.99,VWS V14.01,2013-07-06 01:15:00,
2013-07-05 18:20:00,69.6,20.0,24.89,SW,224,10.5,12.3,15,-99.99,,---,-99.99,VWS V14.01,2013-07-06 01:20:00,
2013-07-05 18:25:00,68.9,19.4,24.89,SSW,212,8.3,10.1,15,-99.99,,---,-99.99,VWS V14.01,2013-07-06 01:25:00,
2013-07-05 18:30:00,68.4,19.0,24.89,SW,219,12.8,12.8,15,-99.99,,---,-99.99,VWS V14.01,2013-07-06 01:30:00,
2013-07-05 18:35:00,68.4,19.0,24.89,SW,222,11.0,11.0,15,-99.99,,---,-99.99,VWS V14.01,2013-07-06 01:35:00,
2013-07-05 18:40:00,68.0,18.7,24.89,SW,220,10.5,10.5,15,-99.99,,---,-99.99,VWS V14.01,2013-07-06 01:40:00,
2013-07-05 18:45:00,67.6,18.4,24.89,SSW,208,7.6,8.1,15,-99.99,,---,-99.99,VWS V14.01,2013-07-06 01:45:00,
2013-07-05 18:50:00,67.5,18.2,24.89,SW,225,8.7,12.8,15,-99.99,,---,-99.99,VWS V14.01,2013-07-06 01:50:00,
2013-07-05 18:55:00,66.9,17.8,24.89,WSW,239,11.0,11.0,15,-99.99,,---,-99.99,VWS V14.01,2013-07-06 01:55:00,
2013-07-05 19:00:00,66.7,17.6,24.89,SW,229,11.0,12.8,15,-99.99,,---,-99.99,VWS V14.01,2013-07-06 02:00:00,
2013-07-05 19:05:00,66.6,17.5,24.89,SW,230,9.6,11.0,15,-99.99,,---,-99.99,VWS V14.01,2013-07-06 02:05:00,
2013-07-05 19:10:00,66.4,17.4,24.89,SW,223,10.1,10.5,15,-99.99,,---,-99.99,VWS V14.01,2013-07-06 02:10:00,
2013-07-05 19:15:00,65.8,16.9,24.89,SW,232,10.1,10.5,15,-99.99,,---,-99.99,VWS V14.01,2013-07-06 02:15:00,
2013-07-05 19:20:00,65.5,16.6,24.89,SW,219,12.8,12.8,15,-99.99,,---,-99.99,VWS V14.01,2013-07-06 02:20:00,
2013-07-05 19:25:00,65.1,16.4,24.89,SW,227,12.8,12.8,15,-99.99,,---,-99.99,VWS V14.01,2013-07-06 02:25:00,
2013-07-05 19:30:00,64.6,15.9,24.89,SW,235,12.8,14.5,15,-99.99,,---,-99.99,VWS V14.01,2013-07-06 02:30:00,
2013-07-05 19:35:00,64.2,17.1,24.89,SW,224,13.2,13.2,16,-99.99,,---,-99.99,VWS V14.01,2013-07-06 02:35:00,
2013-07-05 19:40:00,64.0,17.0,24.89,SW,231,12.8,12.8,16,-99.99,,---,-99.99,VWS V14.01,2013-07-06 02:40:00,
2013-07-05 19:45:00,64.0,17.0,24.89,SW,222,11.9,12.8,16,-99.99,,---,-99.99,VWS V14.01,2013-07-06 02:45:00,
2013-07-05 19:50:00,63.9,16.8,24.89,SW,214,12.8,12.8,16,-99.99,,---,-99.99,VWS V14.01,2013-07-06 02:50:00,
2013-07-05 19:55:00,63.9,16.8,24.89,SW,217,11.4,12.8,16,-99.99,,---,-99.99,VWS V14.01,2013-07-06 02:55:00,
2013-07-05 19:56:00,63.9,16.8,24.89,SW,229,12.3,13.2,16,-99.99,,---,-99.99,VWS V14.01,2013-07-06 02:56:00,
2013-07-05 20:01:00,63.5,16.5,24.89,SW,236,12.8,15.4,16,-99.99,,---,-99.99,VWS V14.01,2013-07-06 03:01:00,
2013-07-05 20:06:00,63.5,16.5,24.89,SW,219,12.8,15.0,16,-99.99,,---,-99.99,VWS V14.01,2013-07-06 03:06:00,
2013-07-05 20:11:00,63.3,16.4,24.89,SW,229,12.8,13.6,16,-99.99,,---,-99.99,VWS V14.01,2013-07-06 03:11:00,
2013-07-05 20:16:00,63.1,16.2,24.89,WSW,239,12.3,12.3,16,-99.99,,---,-99.99,VWS V14.01,2013-07-06 03:16:00,
2013-07-05 20:21:00,63.1,16.2,24.89,SW,225,13.2,13.2,16,-99.99,,---,-99.99,VWS V14.01,2013-07-06 03:21:00,
2013-07-05 20:22:00,63.1,16.2,24.89,SW,218,11.0,13.2,16,-99.99,,---,-99.99,VWS V14.01,2013-07-06 03:22:00,
2013-07-05 20:27:00,62.8,15.9,24.89,SW,226,12.3,13.6,16,-99.99,,---,-99.99,VWS V14.01,2013-07-06 03:27:00,
2013-07-05 20:32:00,62.6,15.8,24.89,SW,230,13.2,13.2,16,-99.99,,---,-99.99,VWS V14.01,2013-07-06 03:32:00,
2013-07-05 20:37:00,62.4,15.7,24.89,SW,221,12.8,15.0,16,-99.99,,---,-99.99,VWS V14.01,2013-07-06 03:37:00,
2013-07-05 20:42:00,62.2,15.5,24.89,SW,230,12.3,15.0,16,-99.99,,---,-99.99,VWS V14.01,2013-07-06 03:42:00,
2013-07-05 20:47:00,62.1,15.4,24.89,SW,234,12.8,15.0,16,-99.99,,---,-99.99,VWS V14.01,2013-07-06 03:47:00,
2013-07-05 20:52:00,62.1,15.4,24.89,SW,228,10.5,13.2,16,-99.99,,---,-99.99,VWS V14.01,2013-07-06 03:52:00,
2013-07-05 20:57:00,61.9,15.2,24.89,SW,231,13.2,13.2,16,-99.99,,---,-99.99,VWS V14.01,2013-07-06 03:57:00,
2013-07-05 21:01:00,61.7,15.1,24.89,SW,229,12.8,13.2,16,-99.99,,---,-99.99,VWS V14.01,2013-07-06 04:01:00,
2013-07-05 21:02:00,61.7,15.1,24.89,SW,230,12.8,13.2,16,-99.99,,---,-99.99,VWS V14.01,2013-07-06 04:02:00,
2013-07-05 21:07:00,61.5,14.9,24.89,SW,225,14.5,14.5,16,-99.99,,---,-99.99,VWS V14.01,2013-07-06 04:07:00,
2013-07-05 21:12:00,61.5,14.9,24.89,SW,229,13.2,13.2,16,-99.99,,---,-99.99,VWS V14.01,2013-07-06 04:12:00,
2013-07-05 21:17:00,61.3,14.8,24.89,WSW,237,12.3,12.3,16,-99.99,,---,-99.99,VWS V14.01,2013-07-06 04:17:00,
2013-07-05 21:22:00,61.3,14.8,24.89,SW,228,11.0,11.0,16,-99.99,,---,-99.99,VWS V14.01,2013-07-06 04:22:00,
2013-07-05 21:27:00,61.3,14.8,24.89,SW,218,10.1,10.5,16,-99.99,,---,-99.99,VWS V14.01,2013-07-06 04:27:00,
2013-07-05 21:32:00,61.5,14.9,24.89,SW,221,10.5,11.0,16,-99.99,,---,-99.99,VWS V14.01,2013-07-06 04:32:00,
2013-07-05 21:37:00,61.5,14.9,24.89,WSW,237,10.1,11.0,16,-99.99,,---,-99.99,VWS V14.01,2013-07-06 04:37:00,
2013-07-05 21:42:00,61.3,14.8,24.89,SW,233,11.0,11.0,16,-99.99,,---,-99.99,VWS V14.01,2013-07-06 04:42:00,
2013-07-05 21:47:00,61.3,14.8,24.89,SW,218,10.1,11.0,16,-99.99,,---,-99.99,VWS V14.01,2013-07-06 04:47:00,
2013-07-05 21:52:00,61.2,14.6,24.89,SW,224,11.0,11.0,16,-99.99,,---,-99.99,VWS V14.01,2013-07-06 04:52:00,
2013-07-05 21:57:00,61.2,14.6,24.89,SSW,198,8.3,8.7,16,-99.99,,---,-99.99,VWS V14.01,2013-07-06 04:57:00,
2013-07-05 22:02:00,61.0,14.5,24.89,SSW,207,7.6,8.1,16,-99.99,,---,-99.99,VWS V14.01,2013-07-06 05:02:00,
2013-07-05 22:07:00,61.0,14.5,24.89,SSW,209,7.6,8.1,16,-99.99,,---,-99.99,VWS V14.01,2013-07-06 05:07:00,
2013-07-05 22:12:00,60.8,14.4,24.89,SSW,203,8.3,8.3,16,-99.99,,---,-99.99,VWS V14.01,2013-07-06 05:12:00,
2013-07-05 22:17:00,60.8,14.4,24.89,SSW,204,8.3,8.7,16,-99.99,,---,-99.99,VWS V14.01,2013-07-06 05:17:00,
2013-07-05 22:22:00,60.8,14.4,24.89,SSW,205,8.7,9.6,16,-99.99,,---,-99.99,VWS V14.01,2013-07-06 05:22:00,
2013-07-05 22:27:00,60.6,15.6,24.89,SSW,199,7.6,8.7,17,-99.99,,---,-99.99,VWS V14.01,2013-07-06 05:27:00,
2013-07-05 22:32:00,60.6,15.6,24.89,SSW,212,6.3,8.3,17,-99.99,,---,-99.99,VWS V14.01,2013-07-06 05:32:00,
2013-07-05 22:37:00,60.6,15.6,24.89,SW,214,7.6,8.1,17,-99.99,,---,-99.99,VWS V14.01,2013-07-06 05:37:00,
2013-07-05 22:42:00,60.8,14.4,24.89,SSW,207,5.4,8.3,16,-99.99,,---,-99.99,VWS V14.01,2013-07-06 05:42:00,
2013-07-05 22:47:00,60.8,14.4,24.89,SW,216,8.1,8.3,16,-99.99,,---,-99.99,VWS V14.01,2013-07-06 05:47:00,
2013-07-05 22:52:00,60.8,14.4,24.89,SSW,212,5.8,8.3,16,-99.99,,---,-99.99,VWS V14.01,2013-07-06 05:52:00,
2013-07-05 22:57:00,60.8,14.4,24.89,SW,222,0.0,0.0,16,-99.99,,---,-99.99,VWS V14.01,2013-07-06 05:57:00,
2013-07-05 23:02:00,60.8,14.4,24.89,SW,233,0.0,0.0,16,-99.99,,---,-99.99,VWS V14.01,2013-07-06 06:02:00,
2013-07-05 23:07:00,60.8,14.4,24.89,SW,229,0.0,0.0,16,-99.99,,---,-99.99,VWS V14.01,2013-07-06 06:07:00,
2013-07-05 23:12:00,61.0,14.5,24.89,SW,224,0.0,0.0,16,-99.99,,---,-99.99,VWS V14.01,2013-07-06 06:12:00,
2013-07-05 23:17:00,61.3,14.8,24.89,SSW,210,0.0,0.0,16,-99.99,,---,-99.99,VWS V14.01,2013-07-06 06:17:00,
2013-07-05 23:22:00,61.9,15.2,24.89,SW,223,0.0,0.0,16,-99.99,,---,-99.99,VWS V14.01,2013-07-06 06:22:00,
2013-07-05 23:27:00,62.1,15.4,24.89,SW,215,0.0,0.0,16,-99.99,,---,-99.99,VWS V14.01,2013-07-06 06:27:00,
2013-07-05 23:32:00,62.4,15.7,24.89,WSW,240,0.0,0.0,16,-99.99,,---,-99.99,VWS V14.01,2013-07-06 06:32:00,
2013-07-05 23:37:00,62.8,15.9,24.89,SSW,204,0.0,0.0,16,-99.99,,---,-99.99,VWS V14.01,2013-07-06 06:37:00,
2013-07-05 23:42:00,62.6,15.8,24.89,SW,223,0.0,0.0,16,-99.99,,---,-99.99,VWS V14.01,2013-07-06 06:42:00,
2013-07-05 23:47:00,62.8,15.9,24.89,SW,216,0.0,0.0,16,-99.99,,---,-99.99,VWS V14.01,2013-07-06 06:47:00,
2013-07-05 23:52:00,62.8,15.9,24.89,SW,215,0.0,0.0,16,-99.99,,---,-99.99,VWS V14.01,2013-07-06 06:52:00,
2013-07-05 23:57:00,62.6,15.8,24.89,SW,216,0.0,0.0,16,-99.99,,---,-99.99,VWS V14.01,2013-07-06 06:57:00,